Time;durP1;ratioP1;P1;durP2;ratioP2;P2;SDS_P1;SDS_P2;PMS_P1;PMS_P2;Temp;Humidity;BMP_temperature;BMP_pressure;BME280_temperature;BME280_humidity;BME280_pressure;Samples;Min_cycle;Max_cycle;Signal;HPM_P1;HPM_P2
2023/10/04 00:01:37;;;;;;;188.97;182.17;;;11.90;99.90;;;;;;5113731;28;20445;-77
2023/10/04 00:04:05;;;;;;;201.77;194.30;;;11.80;99.90;;;;;;5113505;28;20515;-77
2023/10/04 00:06:32;;;;;;;166.63;159.97;;;11.90;99.90;;;;;;5113667;28;20501;-77
2023/10/04 00:08:59;;;;;;;183.10;176.17;;;11.90;99.90;;;;;;5113697;28;20448;-77
2023/10/04 00:11:27;;;;;;;200.40;193.00;;;11.90;99.90;;;;;;5113651;28;20452;-77
2023/10/04 00:13:55;;;;;;;200.53;192.93;;;11.90;99.90;;;;;;5113749;28;20533;-77
2023/10/04 00:16:24;;;;;;;192.03;184.80;;;11.90;99.90;;;;;;5113612;28;20523;-77
2023/10/04 00:18:50;;;;;;;186.87;180.27;;;11.90;99.90;;;;;;5113307;28;20854;-78
2023/10/04 00:21:18;;;;;;;187.90;181.07;;;11.90;99.90;;;;;;5113449;28;20445;-78
2023/10/04 00:23:45;;;;;;;208.40;200.83;;;11.90;99.90;;;;;;5113179;28;20487;-77
2023/10/04 00:26:12;;;;;;;210.30;202.80;;;11.80;99.90;;;;;;5113742;28;20449;-77
2023/10/04 00:28:39;;;;;;;224.27;216.07;;;11.70;99.90;;;;;;5113186;28;20448;-77
2023/10/04 00:31:06;;;;;;;245.67;236.63;;;11.80;99.90;;;;;;5113425;28;20535;-77
2023/10/04 00:33:35;;;;;;;257.97;248.07;;;11.80;99.90;;;;;;5112962;28;20997;-77
2023/10/04 00:36:06;;;;;;;251.30;242.00;;;11.80;99.90;;;;;;5113346;28;20808;-77
2023/10/04 00:38:33;;;;;;;255.60;245.80;;;11.70;99.90;;;;;;5113210;28;20444;-77
2023/10/04 00:41:00;;;;;;;260.00;249.90;;;11.70;99.90;;;;;;5113058;28;20460;-77
2023/10/04 00:43:27;;;;;;;282.50;271.47;;;11.70;99.90;;;;;;5112961;28;20480;-77
2023/10/04 00:45:54;;;;;;;280.53;270.00;;;11.70;99.90;;;;;;5112787;28;20564;-77
2023/10/04 00:48:24;;;;;;;281.33;270.37;;;11.70;99.90;;;;;;5112909;28;20532;-77
2023/10/04 00:50:53;;;;;;;287.63;276.43;;;11.80;99.90;;;;;;5112824;28;20494;-77
2023/10/04 00:53:23;;;;;;;297.13;285.03;;;11.80;99.90;;;;;;5112749;28;20448;-77
2023/10/04 00:55:53;;;;;;;308.83;296.37;;;11.60;99.90;;;;;;5112793;28;20444;-77
2023/10/04 00:58:21;;;;;;;340.47;326.17;;;11.60;99.90;;;;;;5112735;28;20449;-77
2023/10/04 01:00:48;;;;;;;340.53;325.97;;;11.60;99.90;;;;;;5112553;28;20518;-77
2023/10/04 01:03:19;;;;;;;337.77;323.63;;;11.60;99.90;;;;;;5112789;28;20505;-77
2023/10/04 01:05:51;;;;;;;356.90;342.33;;;11.60;99.90;;;;;;5112878;28;20480;-76
2023/10/04 01:08:21;;;;;;;366.43;351.27;;;11.60;99.90;;;;;;5112903;28;20543;-77
2023/10/04 01:10:50;;;;;;;357.97;342.47;;;11.60;99.90;;;;;;5112529;28;20540;-76
2023/10/04 01:13:21;;;;;;;373.37;356.67;;;11.60;99.90;;;;;;5112810;28;20444;-77
2023/10/04 01:15:50;;;;;;;396.37;378.57;;;11.60;99.90;;;;;;5112657;28;20444;-77
2023/10/04 01:18:18;;;;;;;412.10;393.30;;;11.50;99.90;;;;;;5112664;28;20453;-77
2023/10/04 01:20:46;;;;;;;436.93;416.67;;;11.50;99.90;;;;;;5112662;28;20452;-76
2023/10/04 01:23:14;;;;;;;448.37;427.27;;;11.50;99.90;;;;;;5112397;28;20444;-76
2023/10/04 01:25:42;;;;;;;466.40;443.60;;;11.50;99.90;;;;;;5112510;28;20472;-76
2023/10/04 01:28:13;;;;;;;464.40;441.70;;;11.50;99.90;;;;;;5112482;28;20535;-76
2023/10/04 01:30:40;;;;;;;485.10;460.60;;;11.50;99.90;;;;;;5112547;28;20505;-76
2023/10/04 01:33:10;;;;;;;512.70;486.40;;;11.50;99.90;;;;;;5112399;28;20468;-76
2023/10/04 01:35:37;;;;;;;511.77;486.47;;;11.50;99.90;;;;;;5112596;28;20445;-76
2023/10/04 01:38:06;;;;;;;554.57;525.50;;;11.40;99.90;;;;;;5112298;28;20449;-76
2023/10/04 01:40:35;;;;;;;582.83;552.13;;;11.50;99.90;;;;;;5112494;28;20572;-76
2023/10/04 01:43:10;;;;;;;600.30;568.83;;;11.50;99.90;;;;;;5112509;28;20444;-75
2023/10/04 01:45:37;;;;;;;574.90;544.73;;;11.50;99.90;;;;;;5112398;28;21055;-75
2023/10/04 01:48:05;;;;;;;597.40;565.50;;;11.50;99.90;;;;;;5112263;28;20453;-76
2023/10/04 01:50:32;;;;;;;602.93;570.13;;;11.60;99.90;;;;;;5112135;28;20491;-76
2023/10/04 01:53:00;;;;;;;575.97;545.30;;;11.60;99.90;;;;;;5112148;28;20452;-76
2023/10/04 01:55:27;;;;;;;566.63;535.13;;;11.70;99.90;;;;;;5112345;28;20449;-76
2023/10/04 01:57:56;;;;;;;555.27;525.87;;;11.70;99.90;;;;;;5112238;28;21014;-76
2023/10/04 02:00:28;;;;;;;556.40;527.30;;;11.70;99.90;;;;;;5112164;28;20453;-76
2023/10/04 02:02:55;;;;;;;557.13;528.60;;;11.70;99.90;;;;;;5111988;28;20501;-76
2023/10/04 02:05:28;;;;;;;528.30;501.47;;;11.70;99.90;;;;;;5112127;28;20559;-76
2023/10/04 02:07:56;;;;;;;547.90;519.50;;;11.80;99.90;;;;;;5112329;28;20444;-76
2023/10/04 02:10:23;;;;;;;543.03;514.57;;;11.80;99.90;;;;;;5112101;28;20476;-75
2023/10/04 02:12:53;;;;;;;523.37;495.77;;;11.70;99.90;;;;;;5114785;28;20452;-76
2023/10/04 02:15:22;;;;;;;523.10;495.70;;;11.80;99.90;;;;;;5115853;28;20967;-76
2023/10/04 02:17:53;;;;;;;504.37;479.10;;;11.90;99.90;;;;;;5116017;28;20711;-76
2023/10/04 02:20:23;;;;;;;496.07;471.00;;;11.90;99.90;;;;;;5115865;28;20932;-76
2023/10/04 02:22:50;;;;;;;468.30;445.60;;;11.90;99.90;;;;;;5115635;28;20449;-76
2023/10/04 02:25:19;;;;;;;444.13;423.43;;;12.00;99.90;;;;;;5115718;28;20472;-76
2023/10/04 02:27:46;;;;;;;426.17;406.30;;;12.00;99.90;;;;;;5115547;28;20483;-76
2023/10/04 02:30:21;;;;;;;402.80;384.17;;;12.00;99.90;;;;;;5115339;28;20455;-76
2023/10/04 02:32:50;;;;;;;380.63;363.23;;;12.10;99.90;;;;;;5115306;28;20444;-76
2023/10/04 02:35:26;;;;;;;370.90;354.70;;;12.10;99.90;;;;;;5115432;28;20451;-76
2023/10/04 02:37:59;;;;;;;374.20;357.70;;;12.10;99.90;;;;;;5115394;28;20539;-76
2023/10/04 02:40:32;;;;;;;370.67;354.27;;;12.10;99.90;;;;;;5115138;28;20459;-76
2023/10/04 02:42:59;;;;;;;371.80;355.40;;;12.10;99.90;;;;;;5115462;28;20502;-76
2023/10/04 02:45:29;;;;;;;370.13;353.83;;;12.10;99.90;;;;;;5115356;28;20476;-76
2023/10/04 02:47:57;;;;;;;352.93;337.70;;;12.10;99.90;;;;;;5115155;28;20889;-76
2023/10/04 02:50:25;;;;;;;358.57;342.97;;;12.20;99.90;;;;;;5115116;28;20444;-75
2023/10/04 02:52:54;;;;;;;370.17;354.17;;;12.20;99.90;;;;;;5114640;28;20467;-78
2023/10/04 02:55:22;;;;;;;363.70;347.67;;;12.20;99.90;;;;;;5115082;28;20445;-76
2023/10/04 02:57:51;;;;;;;361.53;345.90;;;12.20;99.90;;;;;;5115307;28;20456;-76
2023/10/04 03:00:21;;;;;;;369.57;353.27;;;12.20;99.90;;;;;;5115029;28;20449;-75
2023/10/04 03:02:50;;;;;;;352.33;336.30;;;12.20;99.90;;;;;;5114980;28;20868;-76
2023/10/04 03:05:19;;;;;;;343.07;328.57;;;12.20;99.90;;;;;;5114851;28;20473;-75
2023/10/04 03:07:47;;;;;;;352.27;336.87;;;12.20;99.90;;;;;;5114918;28;20525;-75
2023/10/04 03:10:23;;;;;;;357.60;341.63;;;12.20;99.90;;;;;;5115023;28;20792;-72
2023/10/04 03:12:51;;;;;;;358.17;342.30;;;12.10;99.90;;;;;;5114999;28;20468;-75
2023/10/04 03:15:21;;;;;;;352.80;337.47;;;12.10;99.90;;;;;;5114855;28;20858;-72
2023/10/04 03:17:48;;;;;;;364.60;348.00;;;12.10;99.90;;;;;;5114566;28;20444;-72
2023/10/04 03:20:20;;;;;;;369.87;352.40;;;12.10;99.90;;;;;;5114741;28;20497;-72
2023/10/04 03:22:49;;;;;;;397.40;379.90;;;12.00;99.90;;;;;;5114123;28;20449;-72
2023/10/04 03:25:15;;;;;;;399.37;381.50;;;12.00;99.90;;;;;;5114527;28;20541;-72
2023/10/04 03:27:44;;;;;;;395.47;377.37;;;12.00;99.90;;;;;;5114437;28;20529;-72
2023/10/04 03:30:14;;;;;;;404.77;386.20;;;12.00;99.90;;;;;;5114410;28;20955;-72
2023/10/04 03:32:43;;;;;;;388.63;371.30;;;12.00;99.90;;;;;;5114370;28;20539;-71
2023/10/04 03:35:14;;;;;;;391.63;373.73;;;12.00;99.90;;;;;;5114445;28;20536;-72
2023/10/04 03:37:49;;;;;;;384.03;366.77;;;12.00;99.90;;;;;;5114145;28;21008;-72
2023/10/04 03:40:17;;;;;;;396.90;379.00;;;11.90;99.90;;;;;;5114301;28;20853;-72
2023/10/04 03:42:46;;;;;;;402.90;384.90;;;11.90;99.90;;;;;;5114186;28;20445;-72
2023/10/04 03:45:17;;;;;;;399.03;380.67;;;12.00;99.90;;;;;;5113976;28;20477;-72
2023/10/04 03:47:47;;;;;;;405.13;386.53;;;11.90;99.90;;;;;;5114380;28;20471;-72
2023/10/04 03:50:14;;;;;;;397.37;379.37;;;11.90;99.90;;;;;;5114023;28;20448;-72
2023/10/04 03:52:42;;;;;;;393.07;374.80;;;11.90;99.90;;;;;;5113677;28;20452;-72
2023/10/04 03:55:10;;;;;;;417.77;398.67;;;11.90;99.90;;;;;;5114116;28;20527;-72
2023/10/04 03:57:42;;;;;;;427.10;406.27;;;11.80;99.90;;;;;;5113873;28;20445;-72
2023/10/04 04:00:14;;;;;;;434.27;413.50;;;11.80;99.90;;;;;;5114012;28;20502;-72
2023/10/04 04:02:41;;;;;;;460.70;437.83;;;11.80;99.90;;;;;;5113812;28;20940;-72
2023/10/04 04:05:11;;;;;;;452.07;430.57;;;11.70;99.90;;;;;;5113634;28;20484;-72
2023/10/04 04:07:38;;;;;;;459.80;437.20;;;11.70;99.90;;;;;;5113608;28;20458;-72
2023/10/04 04:10:07;;;;;;;470.73;447.23;;;11.70;99.90;;;;;;5113411;28;20484;-72
2023/10/04 04:12:36;;;;;;;511.07;484.53;;;11.60;99.90;;;;;;5113541;28;20487;-72
2023/10/04 04:15:10;;;;;;;537.80;508.77;;;11.60;99.90;;;;;;5113537;28;20928;-72
2023/10/04 04:17:39;;;;;;;549.87;521.50;;;11.60;99.90;;;;;;5113515;28;20445;-73
2023/10/04 04:20:14;;;;;;;592.80;561.40;;;11.60;99.90;;;;;;5113421;28;20677;-73
2023/10/04 04:22:43;;;;;;;606.33;574.33;;;11.50;99.90;;;;;;5113209;28;20448;-73
2023/10/04 04:25:14;;;;;;;634.20;600.17;;;11.40;99.90;;;;;;5113408;28;20871;-73
2023/10/04 04:27:44;;;;;;;640.27;606.13;;;11.40;99.90;;;;;;5113263;28;20506;-72
2023/10/04 04:30:16;;;;;;;651.23;616.13;;;11.40;99.90;;;;;;5113272;28;20488;-73
2023/10/04 04:32:45;;;;;;;714.13;674.30;;;11.30;99.90;;;;;;5113099;28;20535;-72
2023/10/04 04:35:16;;;;;;;727.43;687.07;;;11.30;99.90;;;;;;5112393;28;20502;-72
2023/10/04 04:37:44;;;;;;;765.47;722.60;;;11.30;99.90;;;;;;5113016;28;20459;-72
2023/10/04 04:40:17;;;;;;;773.90;729.50;;;11.30;99.90;;;;;;5113020;28;20459;-72
2023/10/04 04:42:47;;;;;;;796.07;750.40;;;11.20;99.90;;;;;;5113175;28;20455;-72
2023/10/04 04:45:16;;;;;;;816.77;769.10;;;11.10;99.90;;;;;;5112932;28;20444;-72
2023/10/04 04:47:44;;;;;;;822.27;774.20;;;11.20;99.90;;;;;;5113220;28;20452;-72
2023/10/04 04:50:12;;;;;;;858.27;807.57;;;11.10;99.90;;;;;;5113331;28;20445;-72
2023/10/04 04:52:41;;;;;;;865.57;813.57;;;11.10;99.90;;;;;;5112845;28;20914;-72
2023/10/04 04:55:11;;;;;;;889.27;834.70;;;11.00;99.90;;;;;;5112813;28;20454;-72
2023/10/04 04:57:39;;;;;;;895.87;841.80;;;10.90;99.90;;;;;;5112902;28;20462;-72
2023/10/04 05:00:31;;;;;;;900.80;844.80;;;10.90;99.90;;;;;;5112706;28;20808;-73
2023/10/04 05:03:00;;;;;;;926.50;867.40;;;10.80;99.90;;;;;;5112466;28;20445;-72
2023/10/04 05:05:28;;;;;;;949.00;887.97;;;10.80;99.90;;;;;;5113001;28;20481;-72
2023/10/04 05:07:55;;;;;;;957.50;895.27;;;10.80;99.90;;;;;;5112924;28;20445;-72
2023/10/04 05:10:25;;;;;;;962.93;899.20;;;10.80;99.90;;;;;;5112938;28;20540;-72
2023/10/04 05:12:53;;;;;;;959.23;896.13;;;10.80;99.90;;;;;;5112826;28;20449;-73
2023/10/04 05:15:28;;;;;;;970.00;905.23;;;10.70;99.90;;;;;;5112843;28;20839;-73
2023/10/04 05:17:55;;;;;;;973.83;909.33;;;10.80;99.90;;;;;;5112777;28;20459;-72
2023/10/04 05:20:25;;;;;;;986.37;919.73;;;10.70;99.90;;;;;;5112660;28;20477;-73
2023/10/04 05:22:53;;;;;;;972.60;906.70;;;10.70;99.90;;;;;;5112395;28;20932;-72
2023/10/04 05:25:21;;;;;;;979.50;910.70;;;10.60;99.90;;;;;;5112398;28;20505;-73
2023/10/04 05:27:50;;;;;;;989.90;918.60;;;10.50;99.90;;;;;;5112503;28;20987;-73
2023/10/04 05:30:18;;;;;;;983.30;914.60;;;10.50;99.90;;;;;;5112570;28;20818;-72
2023/10/04 05:32:47;;;;;;;988.80;915.50;;;10.50;99.90;;;;;;5112387;28;20451;-72
2023/10/04 05:35:14;;;;;;;988.40;914.93;;;10.50;99.90;;;;;;5112423;28;20448;-72
2023/10/04 05:37:44;;;;;;;988.50;916.40;;;10.60;99.90;;;;;;5112403;28;20456;-72
2023/10/04 05:40:16;;;;;;;987.07;915.10;;;10.60;99.90;;;;;;5112633;28;20444;-72
2023/10/04 05:42:45;;;;;;;981.90;911.10;;;10.60;99.90;;;;;;5112299;28;20539;-73
2023/10/04 05:45:12;;;;;;;995.10;922.40;;;10.60;99.90;;;;;;5112830;28;20518;-72
2023/10/04 05:47:39;;;;;;;988.03;914.13;;;10.60;99.90;;;;;;5116440;28;20555;-72
2023/10/04 05:50:08;;;;;;;986.70;915.50;;;10.70;99.90;;;;;;5116209;28;20448;-72
2023/10/04 05:52:35;;;;;;;979.03;907.93;;;10.60;99.90;;;;;;5116043;28;20543;-72
2023/10/04 05:55:04;;;;;;;970.87;901.57;;;10.60;99.90;;;;;;5116137;28;20445;-72
2023/10/04 05:57:31;;;;;;;977.20;906.80;;;10.60;99.90;;;;;;5116259;28;20822;-73
2023/10/04 05:59:58;;;;;;;974.20;903.30;;;10.60;99.90;;;;;;5116223;28;20444;-72
2023/10/04 06:02:25;;;;;;;971.77;901.77;;;10.60;99.90;;;;;;5115931;28;20813;-73
2023/10/04 06:04:53;;;;;;;972.57;902.93;;;10.60;99.90;;;;;;5116161;28;20475;-72
2023/10/04 06:07:19;;;;;;;972.50;901.87;;;10.60;99.90;;;;;;5116115;28;20849;-72
2023/10/04 06:09:46;;;;;;;966.97;896.97;;;10.60;99.90;;;;;;5116143;28;20525;-72
2023/10/04 06:12:15;;;;;;;969.03;898.90;;;10.70;99.90;;;;;;5115443;28;20535;-73
2023/10/04 06:14:43;;;;;;;972.50;902.80;;;10.70;99.90;;;;;;5115862;28;20460;-72
2023/10/04 06:17:10;;;;;;;953.07;885.60;;;10.80;99.90;;;;;;5115728;28;20448;-72
2023/10/04 06:19:37;;;;;;;945.40;879.70;;;10.90;99.90;;;;;;5115880;28;20455;-72
2023/10/04 06:22:04;;;;;;;932.87;868.77;;;10.90;99.90;;;;;;5115913;28;20539;-72
2023/10/04 06:24:32;;;;;;;954.50;888.43;;;11.00;99.90;;;;;;5115749;28;20448;-72
2023/10/04 06:27:01;;;;;;;940.77;878.70;;;11.00;99.90;;;;;;5116062;28;20473;-72
2023/10/04 06:29:29;;;;;;;937.97;875.93;;;10.90;99.90;;;;;;5115520;28;20449;-72
2023/10/04 06:31:56;;;;;;;938.03;875.30;;;10.90;99.90;;;;;;5115231;28;20452;-72
2023/10/04 06:34:23;;;;;;;935.17;873.30;;;11.00;99.90;;;;;;5115491;28;20455;-72
2023/10/04 06:36:50;;;;;;;929.37;868.77;;;11.00;99.90;;;;;;5115578;28;20451;-72
2023/10/04 06:39:18;;;;;;;919.00;860.13;;;11.10;99.90;;;;;;5115423;28;21003;-72
2023/10/04 06:41:44;;;;;;;910.07;852.07;;;11.20;99.90;;;;;;5115239;28;20448;-72
2023/10/04 06:44:11;;;;;;;893.37;837.13;;;11.20;99.90;;;;;;5115270;28;20832;-72
2023/10/04 06:46:40;;;;;;;883.17;829.03;;;11.30;99.90;;;;;;5115203;28;20473;-72
2023/10/04 06:49:07;;;;;;;856.60;805.33;;;11.30;99.90;;;;;;5115391;28;20551;-72
2023/10/04 06:51:34;;;;;;;855.90;804.70;;;11.50;99.90;;;;;;5115167;28;20457;-72
2023/10/04 06:54:05;;;;;;;813.47;766.27;;;11.50;99.90;;;;;;5115027;27;20457;-72
2023/10/04 06:56:32;;;;;;;807.43;761.53;;;11.60;99.90;;;;;;5114104;28;20476;-72
2023/10/04 06:58:59;;;;;;;734.60;694.17;;;11.60;99.90;;;;;;5113727;28;20820;-72
2023/10/04 07:01:26;;;;;;;736.70;696.83;;;11.70;99.90;;;;;;5114460;28;20487;-72
2023/10/04 07:03:57;;;;;;;740.90;700.93;;;11.80;99.90;;;;;;5114577;28;20551;-72
2023/10/04 07:06:24;;;;;;;692.17;655.00;;;11.80;99.90;;;;;;5114319;28;20512;-72
2023/10/04 07:08:52;;;;;;;658.53;624.23;;;11.90;99.90;;;;;;5114216;28;20449;-72
2023/10/04 07:11:19;;;;;;;630.50;599.10;;;12.00;99.90;;;;;;5114248;28;20448;-72
2023/10/04 07:13:49;;;;;;;574.07;545.23;;;12.10;99.90;;;;;;5114393;28;20448;-72
2023/10/04 07:16:17;;;;;;;526.57;500.93;;;12.10;99.90;;;;;;5114246;28;20447;-73
2023/10/04 07:18:44;;;;;;;469.37;446.60;;;12.20;99.90;;;;;;5114172;28;20452;-73
2023/10/04 07:21:12;;;;;;;439.03;418.23;;;12.30;99.90;;;;;;5114130;28;20456;-73
2023/10/04 07:23:39;;;;;;;377.17;359.90;;;12.40;99.90;;;;;;5113918;28;20924;-72
2023/10/04 07:26:09;;;;;;;349.50;332.97;;;12.50;99.90;;;;;;5113941;28;20535;-72
2023/10/04 07:28:37;;;;;;;352.63;336.20;;;12.60;99.90;;;;;;5113929;28;20449;-73
2023/10/04 07:31:06;;;;;;;337.33;322.10;;;12.70;99.90;;;;;;5114001;28;20497;-74
2023/10/04 07:33:33;;;;;;;272.23;260.83;;;12.80;99.90;;;;;;5113502;28;20812;-73
2023/10/04 07:36:00;;;;;;;266.73;254.03;;;12.80;99.90;;;;;;5113843;28;20456;-72
2023/10/04 07:38:29;;;;;;;225.67;216.90;;;12.90;99.90;;;;;;5113490;28;20452;-73
2023/10/04 07:40:56;;;;;;;225.63;216.00;;;13.00;99.90;;;;;;5114040;28;20484;-73
2023/10/04 07:43:23;;;;;;;208.53;199.10;;;13.10;99.90;;;;;;5114038;28;20480;-73
2023/10/04 07:45:50;;;;;;;190.50;183.00;;;13.20;99.90;;;;;;5113553;28;20795;-73
2023/10/04 07:48:17;;;;;;;157.50;151.23;;;13.30;99.90;;;;;;5113157;28;20473;-72
2023/10/04 07:50:46;;;;;;;136.13;131.10;;;13.40;99.90;;;;;;5113583;28;20521;-73
2023/10/04 07:53:13;;;;;;;151.30;144.97;;;13.50;99.90;;;;;;5113806;28;20931;-73
2023/10/04 07:55:43;;;;;;;130.53;125.00;;;13.60;99.90;;;;;;5113454;28;20527;-73
2023/10/04 07:58:12;;;;;;;102.67;98.23;;;13.70;99.90;;;;;;5113262;28;20512;-73
2023/10/04 08:00:40;;;;;;;61.33;58.00;;;13.80;99.90;;;;;;5114764;28;20498;-73
2023/10/04 08:03:08;;;;;;;71.53;68.03;;;13.90;99.90;;;;;;5114995;28;21038;-73
2023/10/04 08:05:35;;;;;;;67.83;64.43;;;14.00;99.90;;;;;;5115006;27;20457;-76
2023/10/04 08:08:04;;;;;;;43.67;40.60;;;14.10;99.90;;;;;;5115074;28;20472;-76
2023/10/04 08:10:33;;;;;;;25.03;23.00;;;14.10;99.90;;;;;;5112824;28;20451;-76
2023/10/04 08:13:03;;;;;;;26.43;24.53;;;14.30;99.90;;;;;;5113665;28;20544;-77
2023/10/04 08:15:32;;;;;;;19.37;17.57;;;14.30;99.90;;;;;;5113660;28;20531;-77
2023/10/04 08:18:01;;;;;;;20.23;17.27;;;14.50;99.90;;;;;;5113387;28;20791;-77
2023/10/04 08:20:29;;;;;;;18.70;11.47;;;14.50;99.90;;;;;;5113422;28;20453;-77
2023/10/04 08:22:57;;;;;;;16.93;11.07;;;14.60;99.50;;;;;;5113501;28;20535;-77
2023/10/04 08:25:25;;;;;;;11.63;7.63;;;14.70;99.60;;;;;;5113664;28;20452;-77
2023/10/04 08:27:52;;;;;;;15.03;10.10;;;14.80;99.60;;;;;;5113361;28;20484;-77
2023/10/04 08:30:20;;;;;;;16.53;6.80;;;14.90;99.70;;;;;;5113360;28;20444;-77
2023/10/04 08:32:48;;;;;;;24.20;6.50;;;15.00;99.60;;;;;;5113017;28;20484;-77
2023/10/04 08:35:24;;;;;;;20.50;5.40;;;15.20;98.40;;;;;;5113279;28;20472;-77
2023/10/04 08:37:54;;;;;;;10.50;6.57;;;15.40;97.50;;;;;;5113242;28;20484;-77
2023/10/04 08:40:21;;;;;;;11.73;4.67;;;15.70;96.70;;;;;;5113525;28;20447;-77
2023/10/04 08:42:50;;;;;;;12.53;5.30;;;15.80;93.40;;;;;;5113166;28;20538;-77
2023/10/04 08:45:17;;;;;;;15.93;6.00;;;16.10;93.50;;;;;;5113065;28;20509;-77
2023/10/04 08:47:50;;;;;;;16.40;4.53;;;16.30;95.90;;;;;;5113170;28;20585;-77
2023/10/04 08:50:28;;;;;;;11.03;4.33;;;16.60;93.70;;;;;;5112957;28;20493;-78
2023/10/04 08:53:04;;;;;;;14.37;3.37;;;16.90;93.80;;;;;;5112711;28;20458;-78
2023/10/04 08:55:39;;;;;;;12.50;4.50;;;17.10;90.50;;;;;;5112919;28;20964;-78
2023/10/04 08:58:08;;;;;;;11.03;3.30;;;17.20;87.70;;;;;;5113155;28;20457;-78
2023/10/04 09:00:36;;;;;;;10.80;3.30;;;17.40;87.60;;;;;;5113067;28;20455;-79
2023/10/04 09:03:08;;;;;;;13.30;3.77;;;17.40;83.70;;;;;;5112732;28;20689;-78
2023/10/04 09:05:36;;;;;;;17.13;4.50;;;17.80;84.00;;;;;;5112984;28;20939;-79
2023/10/04 09:08:04;;;;;;;20.77;4.37;;;18.00;76.40;;;;;;5112646;28;20552;-78
2023/10/04 09:10:32;;;;;;;15.87;4.30;;;18.10;76.30;;;;;;5112775;28;20457;-78
2023/10/04 09:13:01;;;;;;;16.90;3.40;;;18.00;72.40;;;;;;5112616;28;20934;-78
2023/10/04 09:15:28;;;;;;;10.10;3.53;;;18.10;72.50;;;;;;5112950;28;20448;-79
2023/10/04 09:17:57;;;;;;;9.57;3.00;;;18.10;70.70;;;;;;5112740;28;20931;-78
2023/10/04 09:20:29;;;;;;;15.83;4.20;;;18.40;76.40;;;;;;5113359;28;20450;-79
2023/10/04 09:22:56;;;;;;;12.63;3.33;;;18.70;68.90;;;;;;5116949;28;20926;-79
2023/10/04 09:25:23;;;;;;;14.93;4.40;;;18.90;69.10;;;;;;5116956;28;20452;-79
2023/10/04 09:27:56;;;;;;;9.90;3.43;;;19.10;69.20;;;;;;5116854;28;20480;-79
2023/10/04 09:30:25;;;;;;;13.97;5.10;;;19.10;65.50;;;;;;5117114;28;20852;-78
2023/10/04 09:32:52;;;;;;;8.90;3.40;;;19.40;63.70;;;;;;5116762;28;20493;-79
2023/10/04 09:35:19;;;;;;;8.67;2.27;;;19.40;61.30;;;;;;5116655;28;20452;-79
2023/10/04 09:37:49;;;;;;;12.50;3.23;;;19.50;61.40;;;;;;5116866;28;20525;-79
2023/10/04 09:40:18;;;;;;;14.00;5.00;;;19.60;57.60;;;;;;5116779;28;20476;-80
2023/10/04 09:42:51;;;;;;;17.70;4.47;;;19.50;52.70;;;;;;5117116;28;20444;-79
2023/10/04 09:45:20;;;;;;;13.70;3.17;;;19.40;52.70;;;;;;5116577;28;20457;-79
2023/10/04 09:47:50;;;;;;;11.13;4.20;;;19.80;53.00;;;;;;5116403;28;20576;-79
2023/10/04 09:50:22;;;;;;;14.43;3.20;;;19.40;52.70;;;;;;5116638;28;20875;-80
2023/10/04 09:52:50;;;;;;;14.10;3.73;;;19.20;52.50;;;;;;5116305;28;20551;-79
2023/10/04 09:55:20;;;;;;;15.37;3.40;;;19.60;52.90;;;;;;5116430;28;20527;-79
2023/10/04 09:57:49;;;;;;;13.53;3.63;;;20.00;50.20;;;;;;5116424;28;20516;-79
2023/10/04 10:00:18;;;;;;;8.40;2.83;;;20.10;47.70;;;;;;5116129;28;20920;-79
2023/10/04 10:02:50;;;;;;;18.37;4.73;;;20.30;47.10;;;;;;5116320;28;20445;-80
2023/10/04 10:05:26;;;;;;;11.47;3.20;;;20.30;44.60;;;;;;5116213;28;20451;-79
2023/10/04 10:08:04;;;;;;;9.87;2.87;;;20.30;44.60;;;;;;5114994;28;20467;-82
2023/10/04 10:10:34;;;;;;;13.50;3.93;;;19.90;39.80;;;;;;5115137;28;20479;-80
2023/10/04 10:13:04;;;;;;;13.23;3.50;;;20.00;40.80;;;;;;5116170;28;20441;-73
2023/10/04 10:15:31;;;;;;;14.80;3.33;;;20.40;38.90;;;;;;5115382;28;20523;-73
2023/10/04 10:18:00;;;;;;;9.23;3.60;;;20.00;35.40;;;;;;5115428;28;20543;-73
2023/10/04 10:20:27;;;;;;;15.53;3.67;;;20.30;44.60;;;;;;5115393;28;20455;-73
2023/10/04 10:23:13;;;;;;;15.13;3.80;;;20.60;35.90;;;;;;5115455;28;20474;-73
2023/10/04 10:25:41;;;;;;;14.13;3.40;;;21.10;40.90;;;;;;5115733;28;20452;-73
2023/10/04 10:28:21;;;;;;;17.57;3.73;;;21.70;36.80;;;;;;5114983;28;20472;-73
2023/10/04 10:31:00;;;;;;;9.00;3.30;;;21.50;28.10;;;;;;5115229;28;20512;-73
2023/10/04 10:33:27;;;;;;;12.57;3.60;;;22.00;28.50;;;;;;5110822;28;20471;-74
2023/10/04 10:35:59;;;;;;;12.70;4.33;;;22.20;28.60;;;;;;5115307;28;20444;-73
2023/10/04 10:38:47;;;;;;;15.10;5.00;;;21.50;28.80;;;;;;5115486;28;20445;-74
2023/10/04 10:41:53;;;;;;;13.50;3.93;;;21.70;28.20;;;;;;5115329;28;20757;-74
2023/10/04 10:44:20;;;;;;;14.90;4.73;;;21.60;28.20;;;;;;5108643;28;20951;-74
2023/10/04 10:46:58;;;;;;;13.47;3.43;;;21.80;28.30;;;;;;5115332;28;20497;-74
2023/10/04 10:49:41;;;;;;;16.30;5.97;;;21.40;25.40;;;;;;5114900;28;20475;-73
2023/10/04 10:52:10;;;;;;;11.47;3.90;;;21.40;27.80;;;;;;5114107;28;20535;-73
2023/10/04 10:54:38;;;;;;;12.17;4.30;;;20.90;25.30;;;;;;5115266;28;20474;-74
2023/10/04 10:57:06;;;;;;;10.10;3.27;;;21.10;27.80;;;;;;5115253;28;20802;-73
2023/10/04 10:59:34;;;;;;;11.23;3.97;;;20.90;27.50;;;;;;5114147;27;20543;-73
2023/10/04 11:02:04;;;;;;;17.27;3.77;;;20.20;27.20;;;;;;5114715;28;20444;-73
2023/10/04 11:04:31;;;;;;;15.07;4.33;;;20.30;27.20;;;;;;5114875;28;20777;-73
2023/10/04 11:06:58;;;;;;;10.83;3.70;;;19.90;27.10;;;;;;5115170;28;20445;-72
2023/10/04 11:09:26;;;;;;;13.60;4.20;;;19.90;29.10;;;;;;5114880;28;20448;-73
2023/10/04 11:11:56;;;;;;;11.83;4.00;;;19.60;28.90;;;;;;5114386;28;20494;-72
2023/10/04 11:14:23;;;;;;;11.57;3.63;;;19.30;34.60;;;;;;5114686;28;20535;-72
2023/10/04 11:16:51;;;;;;;17.23;4.17;;;19.30;34.50;;;;;;5114574;28;20872;-73
2023/10/04 11:19:18;;;;;;;11.23;4.50;;;19.40;34.70;;;;;;5113476;28;20444;-72
2023/10/04 11:21:46;;;;;;;16.93;5.10;;;19.50;34.80;;;;;;5113883;28;20880;-73
2023/10/04 11:24:15;;;;;;;12.80;4.73;;;19.60;34.90;;;;;;5114157;28;20509;-72
2023/10/04 11:26:46;;;;;;;12.37;4.20;;;19.60;34.90;;;;;;5113639;28;20480;-72
2023/10/04 11:29:15;;;;;;;11.53;4.13;;;19.60;34.80;;;;;;5113765;28;20508;-72
2023/10/04 11:31:42;;;;;;;13.27;4.10;;;19.80;30.80;;;;;;5113535;28;20448;-73
2023/10/04 11:34:11;;;;;;;14.27;4.27;;;19.70;26.90;;;;;;5112978;28;21023;-72
2023/10/04 11:36:38;;;;;;;11.87;4.50;;;19.70;33.00;;;;;;5113727;28;20455;-73
2023/10/04 11:39:12;;;;;;;12.17;4.00;;;19.80;32.60;;;;;;5112739;28;20441;-73
2023/10/04 11:41:40;;;;;;;13.37;3.30;;;20.00;27.10;;;;;;5112089;28;20855;-79
2023/10/04 11:44:08;;;;;;;15.67;4.80;;;20.20;27.20;;;;;;5111431;28;20960;-79
2023/10/04 11:46:56;;;;;;;12.30;4.20;;;20.00;27.00;;;;;;5112510;28;20520;-79
2023/10/04 11:49:24;;;;;;;15.00;5.20;;;20.40;27.20;;;;;;5112347;28;21014;-78
2023/10/04 11:51:51;;;;;;;12.63;4.07;;;20.80;23.10;;;;;;5112369;28;20464;-79
2023/10/04 11:54:18;;;;;;;14.00;5.00;;;21.10;20.50;;;;;;5112477;28;20447;-79
2023/10/04 11:56:45;;;;;;;17.10;5.63;;;20.80;20.30;;;;;;5113754;28;20501;-79
2023/10/04 11:59:13;;;;;;;13.90;4.30;;;20.60;20.10;;;;;;5113857;28;20456;-78
2023/10/04 12:01:44;;;;;;;13.87;5.20;;;20.60;20.10;;;;;;5114029;28;20804;-78
2023/10/04 12:04:15;;;;;;;13.87;4.97;;;20.50;20.10;;;;;;5113833;28;20448;-78
2023/10/04 12:06:44;;;;;;;13.27;5.77;;;20.80;20.30;;;;;;5114401;28;20455;-79
2023/10/04 12:09:11;;;;;;;13.17;5.90;;;20.70;20.20;;;;;;5113609;28;21041;-78
2023/10/04 12:11:39;;;;;;;18.43;6.20;;;20.90;20.30;;;;;;5113838;28;20456;-78
2023/10/04 12:14:09;;;;;;;15.43;5.30;;;20.70;20.20;;;;;;5113638;28;20534;-78
2023/10/04 12:16:37;;;;;;;10.17;4.77;;;20.60;20.10;;;;;;5113692;28;20448;-79
2023/10/04 12:19:04;;;;;;;13.63;5.87;;;20.60;20.10;;;;;;5113864;28;20536;-78
2023/10/04 12:21:33;;;;;;;15.70;6.73;;;20.60;20.10;;;;;;5113425;28;20493;-78
2023/10/04 12:24:02;;;;;;;16.87;6.13;;;20.80;20.30;;;;;;5113290;28;20498;-78
2023/10/04 12:26:30;;;;;;;15.90;5.80;;;20.80;20.30;;;;;;5113468;28;21031;-78
2023/10/04 12:28:57;;;;;;;13.10;5.53;;;20.80;20.30;;;;;;5113404;28;20567;-78